Seacor Conquest — WDA9650 — position and weather

sailwx.info

Track history (hours):
 
Tides and Currents Weather Stations Pressure Air Temp Water Temp Dewpoint Dewpoint Depression Visibility Wind Speed Wind Dir Waves Ship Positions

Seacor Conquest

Owner: SEACOR MARINE LLC, HOUMA, LA. More information available from US FCC via Universal Licensing System and Coast Guard Vessel Documentation Center.

Last reported at 2014-Oct-22 19:25 UTC. Time now 2014-Nov-26 06:31 UTC.
Position N 29°22' W 091°24'.
Warning: this ship's position is 34 days out of date.

Length 61 m; draft 3.2 m.

Type: Cargo ship. MMSI: 338144000.

Date/timePositionNaut miles runAvg speedWind from/ knotsBaromVisibWave heightAir tempDewpointWater temp
2014-Oct-22 19:25N 29°22' W 091°24'6 7.2
2014-Oct-22 18:33N 29°26' W 091°19'7 7.0
2014-Oct-22 17:33N 29°32' W 091°14'7 7.0
2014-Oct-22 16:34N 29°37' W 091°08'6 5.7
2014-Oct-22 15:33N 29°39' W 091°02'1 1.5
2014-Oct-22 14:33N 29°40' W 091°01'0 0.0
2014-Oct-22 13:33N 29°40' W 091°01'0 0.0
2014-Oct-22 12:33N 29°40' W 091°01'0 0.2
2014-Oct-22 11:33N 29°40' W 091°01'0 0.1
2014-Oct-22 10:33N 29°40' W 091°01'0 0.0
2014-Oct-22 09:33N 29°40' W 091°01'0 0.0
2014-Oct-22 08:33N 29°40' W 091°01'0 0.0
2014-Oct-22 07:33N 29°40' W 091°01'0 0.0
2014-Oct-22 06:33N 29°40' W 091°01'0 0.0
2014-Oct-22 05:33N 29°40' W 091°01'0 0.2
2014-Oct-22 04:33N 29°40' W 091°01'4 3.6
2014-Oct-22 03:33N 29°38' W 091°05'4 4.3
2014-Oct-22 02:33N 29°41' W 091°09'4 4.3
2014-Oct-22 01:33N 29°40' W 091°14'6 5.7
2014-Oct-22 00:33N 29°35' W 091°14'8 7.7
2014-Oct-21 23:33N 29°28' W 091°17'60 4.3
2014-Oct-21 09:32N 29°07' W 090°13'  
Track history (hours):
 
Tides and Currents Weather Stations Pressure Air Temp Water Temp Dewpoint Dewpoint Depression Visibility Wind Speed Wind Dir Waves Ship Positions

Seacor Conquest

Owner: SEACOR MARINE LLC, HOUMA, LA. More information available from US FCC via Universal Licensing System and Coast Guard Vessel Documentation Center.

Last reported at 2014-Oct-22 19:25 UTC. Time now 2014-Nov-26 06:31 UTC.
Position N 29°22' W 091°24'.
Warning: this ship's position is 34 days out of date.

Length 61 m; draft 3.2 m.

Type: Cargo ship. MMSI: 338144000.

Date/timePositionNaut miles runAvg speedWind from/ knotsBaromVisibWave heightAir tempDewpointWater temp
2014-Oct-22 19:25N 29°22' W 091°24'6 7.2
2014-Oct-22 18:33N 29°26' W 091°19'7 7.0
2014-Oct-22 17:33N 29°32' W 091°14'7 7.0
2014-Oct-22 16:34N 29°37' W 091°08'6 5.7
2014-Oct-22 15:33N 29°39' W 091°02'1 1.5
2014-Oct-22 14:33N 29°40' W 091°01'0 0.0
2014-Oct-22 13:33N 29°40' W 091°01'0 0.0
2014-Oct-22 12:33N 29°40' W 091°01'0 0.2
2014-Oct-22 11:33N 29°40' W 091°01'0 0.1
2014-Oct-22 10:33N 29°40' W 091°01'0 0.0
2014-Oct-22 09:33N 29°40' W 091°01'0 0.0
2014-Oct-22 08:33N 29°40' W 091°01'0 0.0
2014-Oct-22 07:33N 29°40' W 091°01'0 0.0
2014-Oct-22 06:33N 29°40' W 091°01'0 0.0
2014-Oct-22 05:33N 29°40' W 091°01'0 0.2
2014-Oct-22 04:33N 29°40' W 091°01'4 3.6
2014-Oct-22 03:33N 29°38' W 091°05'4 4.3
2014-Oct-22 02:33N 29°41' W 091°09'4 4.3
2014-Oct-22 01:33N 29°40' W 091°14'6 5.7
2014-Oct-22 00:33N 29°35' W 091°14'8 7.7
2014-Oct-21 23:33N 29°28' W 091°17'60 4.3
2014-Oct-21 09:32N 29°07' W 090°13'  

Dump ship's entire track history